SBOSBO UVF / TLPL
Speedbird OnlineSpeedbird Online UVF / TLPL

Hewanorra International Airport
19:39 25.6°C

Location Hewandorra, Saint Lucia
Latitude: 13.7332
Longitude: -60.952599
Web Airport Website | Wikipedia
Altitude 4 Meter / 14 Feet
Distance 6,832 KM / 4,245 Miles
from London.
Time Zone UTC -4 hours (America/St_Lucia)
Codes IATA: UVF
ICAO: TLPL
Currency £1 equals XCD 3.27
Runways
RunwayLength (m)Surface
102744Asphalt
282744Asphalt
Radio
TypeDescriptionFrequency
APPST LUCIA APP119.8
GNDGND121.6
TWRTWR118.3
Live ATC
METAR TLPL 081400Z 08021KT 9999 BKN022 28/22 Q1016 TEMPO SHRA
TAF TLPL 081100Z 0812/0912 08020KT 9999 SCT025 SCT040 TEMPO 0812/0900 SHRA BKN015 BKN038
Weather As Of 08 Feb 2023 19:39
Description Light rain
Wind 32 km/h from East (80°)
Cloud Cover 40%
Precipitation Rain: none, Snow: none
Sunrise 06:29
Sunset 18:06
Lounges Iyanola Executive Lounge , Main Terminal
Rotations During the last 90 days there were
77 flights from LGW
53 flights from POS
24 flights from GND
84 flights to LGW
56 flights to POS
25 flights to GND



Support Speedbird Online

© 2017-2023 Speedbird Online